Kt Birdie — 3FUJ7 — position and weather

sailwx.info

Track history (hours):
 
Tides and Currents Weather Stations Pressure Air Temp Water Temp Dewpoint Dewpoint Depression Visibility Wind Speed Wind Dir Waves Ship Positions

Kt Birdie

Last reported at 2015-Feb-19 09:13 UTC. Time now 2015-Feb-27 06:05 UTC.
Position N 23°28' W 116°24'.

Length 225 m; draft 14.2 m.

Type: Cargo ship. MMSI: 354803000.

Date/timePositionNaut miles runAvg speedWind from/ knotsBaromVisibWave heightAir tempDewpointWater temp
2015-Feb-19 09:13N 23°28' W 116°24'28611.4
2015-Feb-18 08:10N 27°17' W 119°34'911.7
2015-Feb-18 07:25N 27°24' W 119°40'2411.8
2015-Feb-18 05:20N 27°43' W 119°57'2611.9
2015-Feb-18 03:10N 28°04' W 120°15'2012.5
2015-Feb-18 01:33N 28°20' W 120°28'1211.3
2015-Feb-18 00:32N 28°30' W 120°36'5011.4
2015-Feb-17 20:08N 29°09' W 121°10'3011.4
2015-Feb-17 17:30N 29°34' W 121°31'1111.7
2015-Feb-17 16:33N 29°42' W 121°39'5211.9
2015-Feb-17 12:11N 30°24' W 122°15'2011.6
2015-Feb-17 10:28N 30°40' W 122°29'1111.5
2015-Feb-17 09:30N 30°49' W 122°37'1111.4
2015-Feb-17 08:32N 30°58' W 122°44'1711.6
2015-Feb-17 07:03N 31°11' W 122°56'711.4
2015-Feb-17 06:26N 31°17' W 123°01'1511.4
2015-Feb-17 05:08N 31°29' W 123°12'811.0
2015-Feb-17 04:24N 31°35' W 123°17'6111.6
2015-Feb-16 23:06N 32°24' W 124°01'1711.1
2015-Feb-16 21:33N 32°38' W 124°13'1111.3
2015-Feb-16 20:33N 32°47' W 124°21'1211.5
2015-Feb-16 19:31N 32°56' W 124°30'1211.6
2015-Feb-16 18:31N 33°06' W 124°38'1211.4
2015-Feb-16 17:27N 33°17' W 124°45'1011.4
2015-Feb-16 16:33N 33°25' W 124°52'1111.3
2015-Feb-16 15:33N 33°35' W 124°58'1111.3
2015-Feb-16 14:33N 33°45' W 125°05'1211.5
2015-Feb-16 13:29N 33°54' W 125°14'1111.5
2015-Feb-16 12:33N 34°03' W 125°21'1111.4
2015-Feb-16 11:33N 34°13' W 125°28'1211.5
2015-Feb-16 10:32N 34°23' W 125°36'1111.6
2015-Feb-16 09:33N 34°33' W 125°43'1211.5
2015-Feb-16 08:33N 34°42' W 125°51'1211.7
2015-Feb-16 07:33N 34°52' W 125°58'1211.6
2015-Feb-16 06:33N 35°02' W 126°06'1111.3
2015-Feb-16 05:33N 35°12' W 126°13'1111.1
2015-Feb-16 04:33N 35°21' W 126°20'1111.2
2015-Feb-16 03:33N 35°31' W 126°28'1211.5
2015-Feb-16 02:30N 35°41' W 126°36'1212.9
2015-Feb-16 01:33N 35°51' W 126°44'1211.6
2015-Feb-16 00:32N 36°01' W 126°52'1111.0
2015-Feb-15 23:32N 36°11' W 126°59'1110.9
2015-Feb-15 22:33N 36°20' W 127°06'1111.0
2015-Feb-15 21:31N 36°29' W 127°13'1211.2
2015-Feb-15 20:26N 36°40' W 127°21'3311.4
2015-Feb-15 17:30N 37°08' W 127°43'1411.2
2015-Feb-15 16:14N 37°21' W 127°51'710.9
2015-Feb-15 15:33N 37°28' W 127°55'1110.8
2015-Feb-15 14:33N 37°38' W 127°60'1111.0
2015-Feb-15 13:33N 37°48' W 128°06'1111.4
2015-Feb-15 12:33N 37°58' W 128°11'1211.6
2015-Feb-15 11:33N 38°09' W 128°17'1211.7
2015-Feb-15 10:33N 38°20' W 128°24'1211.7
2015-Feb-15 09:33N 38°30' W 128°29'1211.5
2015-Feb-15 08:33N 38°41' W 128°35'1211.4
2015-Feb-15 07:32N 38°52' W 128°41'1411.4
2015-Feb-15 06:20N 39°04' W 128°48'1111.3
2015-Feb-15 05:23N 39°14' W 128°54'1211.4
2015-Feb-15 04:20N 39°25' W 129°00'  
2015-Feb-12 15:32N 48°19' W 125°14'9 9.0
2015-Feb-12 14:31N 48°26' W 125°06'8 8.4
2015-Feb-12 13:33N 48°30' W 124°55'1010.0
2015-Feb-12 12:33N 48°30' W 124°40'1110.9
2015-Feb-12 11:33N 48°25' W 124°25'1111.2
2015-Feb-12 10:33N 48°21' W 124°10'1211.7
2015-Feb-12 09:33N 48°17' W 123°53'1111.5
2015-Feb-12 08:33N 48°16' W 123°36'9 9.4
2015-Feb-12 07:33N 48°22' W 123°25'9 9.1
2015-Feb-12 06:33N 48°25' W 123°12'1211.8
2015-Feb-12 05:33N 48°37' W 123°14'9 9.2
2015-Feb-12 04:33N 48°45' W 123°07'9 8.9
2015-Feb-12 03:33N 48°53' W 123°04'8 8.2
2015-Feb-12 02:33N 49°01' W 123°09'0 0.0
2015-Feb-12 01:31N 49°01' W 123°09'0 0.0
2015-Feb-12 00:31N 49°01' W 123°09'0 0.0
2015-Feb-11 23:31N 49°01' W 123°09'0 0.0
2015-Feb-11 22:31N 49°01' W 123°09'0 0.0
2015-Feb-11 21:31N 49°01' W 123°09'0 0.0
2015-Feb-11 20:31N 49°01' W 123°09'0 0.0
2015-Feb-11 19:31N 49°01' W 123°09'0 0.0
2015-Feb-11 18:31N 49°01' W 123°09'0 0.0
2015-Feb-11 17:31N 49°01' W 123°09'0 0.0
2015-Feb-11 16:31N 49°01' W 123°09'0 0.0
2015-Feb-11 15:31N 49°01' W 123°09'0 0.0
2015-Feb-11 14:31N 49°01' W 123°09'0 0.0
2015-Feb-11 13:31N 49°01' W 123°09'0 0.0
2015-Feb-11 12:31N 49°01' W 123°09'0 0.0
2015-Feb-11 11:31N 49°01' W 123°09'0 0.0
2015-Feb-11 10:31N 49°01' W 123°09'0 0.0
2015-Feb-11 09:31N 49°01' W 123°09'0 0.0
2015-Feb-11 08:31N 49°01' W 123°09'0 0.0
2015-Feb-11 07:31N 49°01' W 123°09'0 0.0
2015-Feb-11 06:31N 49°01' W 123°09'0 0.0
2015-Feb-11 05:31N 49°01' W 123°09'0 0.0
2015-Feb-11 04:26N 49°01' W 123°09'0 0.0
2015-Feb-11 03:28N 49°01' W 123°09'0 0.0
2015-Feb-11 02:32N 49°01' W 123°09'0 0.0
2015-Feb-11 01:31N 49°01' W 123°09'0 0.0
2015-Feb-11 00:31N 49°01' W 123°09'0 0.0
2015-Feb-10 23:31N 49°01' W 123°09'0 0.0
2015-Feb-10 22:28N 49°01' W 123°09'0 0.0
2015-Feb-10 21:31N 49°01' W 123°09'0 0.0
2015-Feb-10 20:31N 49°01' W 123°09'0 0.0
2015-Feb-10 19:31N 49°01' W 123°09'0 0.0
2015-Feb-10 18:31N 49°01' W 123°09'0 0.0
2015-Feb-10 17:31N 49°01' W 123°09'0 0.0
2015-Feb-10 16:31N 49°01' W 123°09'0 0.0
2015-Feb-10 15:31N 49°01' W 123°09'0 0.0
2015-Feb-10 14:33N 49°01' W 123°09'2 1.8
2015-Feb-10 13:33N 49°00' W 123°12'0 0.3
2015-Feb-10 12:33N 49°00' W 123°12'6 5.5
2015-Feb-10 11:33N 49°01' W 123°20'8 8.0
2015-Feb-10 10:33N 49°08' W 123°23'1110.5
2015-Feb-10 09:33N 49°18' W 123°17'2 2.1
2015-Feb-10 08:32N 49°18' W 123°13'0 0.0
2015-Feb-10 07:32N 49°18' W 123°13'0 0.1
2015-Feb-10 06:32N 49°18' W 123°13'0 0.1
2015-Feb-10 05:32N 49°18' W 123°13'0 0.0
2015-Feb-10 04:32N 49°18' W 123°13'0 0.1
2015-Feb-10 03:32N 49°18' W 123°13'0 0.0
2015-Feb-10 02:32N 49°18' W 123°13'0 0.0
2015-Feb-10 01:32N 49°18' W 123°13'0 0.1
2015-Feb-10 00:32N 49°18' W 123°13'0 0.0
2015-Feb-09 23:32N 49°18' W 123°13'0 0.0
2015-Feb-09 22:32N 49°18' W 123°13'0 0.0
2015-Feb-09 21:32N 49°18' W 123°13'0 0.0
2015-Feb-09 20:32N 49°18' W 123°13'0 0.0
2015-Feb-09 19:32N 49°18' W 123°13'0 0.0
2015-Feb-09 18:32N 49°18' W 123°13'0 0.0
2015-Feb-09 17:32N 49°18' W 123°13'0 0.1
2015-Feb-09 16:32N 49°18' W 123°13'0 0.1
2015-Feb-09 15:32N 49°18' W 123°13'0 0.1
2015-Feb-09 14:32N 49°18' W 123°13'0 0.0
2015-Feb-09 13:32N 49°18' W 123°13'0 0.0
2015-Feb-09 12:32N 49°18' W 123°13'0 0.1
2015-Feb-09 11:32N 49°18' W 123°13'0 0.1
2015-Feb-09 10:32N 49°18' W 123°13'0 0.0
2015-Feb-09 09:32N 49°18' W 123°13'  
Track history (hours):
 
Tides and Currents Weather Stations Pressure Air Temp Water Temp Dewpoint Dewpoint Depression Visibility Wind Speed Wind Dir Waves Ship Positions

Kt Birdie

Last reported at 2015-Feb-19 09:13 UTC. Time now 2015-Feb-27 06:05 UTC.
Position N 23°28' W 116°24'.

Length 225 m; draft 14.2 m.

Type: Cargo ship. MMSI: 354803000.

Date/timePositionNaut miles runAvg speedWind from/ knotsBaromVisibWave heightAir tempDewpointWater temp
2015-Feb-19 09:13N 23°28' W 116°24'28611.4
2015-Feb-18 08:10N 27°17' W 119°34'911.7
2015-Feb-18 07:25N 27°24' W 119°40'2411.8
2015-Feb-18 05:20N 27°43' W 119°57'2611.9
2015-Feb-18 03:10N 28°04' W 120°15'2012.5
2015-Feb-18 01:33N 28°20' W 120°28'1211.3
2015-Feb-18 00:32N 28°30' W 120°36'5011.4
2015-Feb-17 20:08N 29°09' W 121°10'3011.4
2015-Feb-17 17:30N 29°34' W 121°31'1111.7
2015-Feb-17 16:33N 29°42' W 121°39'5211.9
2015-Feb-17 12:11N 30°24' W 122°15'2011.6
2015-Feb-17 10:28N 30°40' W 122°29'1111.5
2015-Feb-17 09:30N 30°49' W 122°37'1111.4
2015-Feb-17 08:32N 30°58' W 122°44'1711.6
2015-Feb-17 07:03N 31°11' W 122°56'711.4
2015-Feb-17 06:26N 31°17' W 123°01'1511.4
2015-Feb-17 05:08N 31°29' W 123°12'811.0
2015-Feb-17 04:24N 31°35' W 123°17'6111.6
2015-Feb-16 23:06N 32°24' W 124°01'1711.1
2015-Feb-16 21:33N 32°38' W 124°13'1111.3
2015-Feb-16 20:33N 32°47' W 124°21'1211.5
2015-Feb-16 19:31N 32°56' W 124°30'1211.6
2015-Feb-16 18:31N 33°06' W 124°38'1211.4
2015-Feb-16 17:27N 33°17' W 124°45'1011.4
2015-Feb-16 16:33N 33°25' W 124°52'1111.3
2015-Feb-16 15:33N 33°35' W 124°58'1111.3
2015-Feb-16 14:33N 33°45' W 125°05'1211.5
2015-Feb-16 13:29N 33°54' W 125°14'1111.5
2015-Feb-16 12:33N 34°03' W 125°21'1111.4
2015-Feb-16 11:33N 34°13' W 125°28'1211.5
2015-Feb-16 10:32N 34°23' W 125°36'1111.6
2015-Feb-16 09:33N 34°33' W 125°43'1211.5
2015-Feb-16 08:33N 34°42' W 125°51'1211.7
2015-Feb-16 07:33N 34°52' W 125°58'1211.6
2015-Feb-16 06:33N 35°02' W 126°06'1111.3
2015-Feb-16 05:33N 35°12' W 126°13'1111.1
2015-Feb-16 04:33N 35°21' W 126°20'1111.2
2015-Feb-16 03:33N 35°31' W 126°28'1211.5
2015-Feb-16 02:30N 35°41' W 126°36'1212.9
2015-Feb-16 01:33N 35°51' W 126°44'1211.6
2015-Feb-16 00:32N 36°01' W 126°52'1111.0
2015-Feb-15 23:32N 36°11' W 126°59'1110.9
2015-Feb-15 22:33N 36°20' W 127°06'1111.0
2015-Feb-15 21:31N 36°29' W 127°13'1211.2
2015-Feb-15 20:26N 36°40' W 127°21'3311.4
2015-Feb-15 17:30N 37°08' W 127°43'1411.2
2015-Feb-15 16:14N 37°21' W 127°51'710.9
2015-Feb-15 15:33N 37°28' W 127°55'1110.8
2015-Feb-15 14:33N 37°38' W 127°60'1111.0
2015-Feb-15 13:33N 37°48' W 128°06'1111.4
2015-Feb-15 12:33N 37°58' W 128°11'1211.6
2015-Feb-15 11:33N 38°09' W 128°17'1211.7
2015-Feb-15 10:33N 38°20' W 128°24'1211.7
2015-Feb-15 09:33N 38°30' W 128°29'1211.5
2015-Feb-15 08:33N 38°41' W 128°35'1211.4
2015-Feb-15 07:32N 38°52' W 128°41'1411.4
2015-Feb-15 06:20N 39°04' W 128°48'1111.3
2015-Feb-15 05:23N 39°14' W 128°54'1211.4
2015-Feb-15 04:20N 39°25' W 129°00'  
2015-Feb-12 15:32N 48°19' W 125°14'9 9.0
2015-Feb-12 14:31N 48°26' W 125°06'8 8.4
2015-Feb-12 13:33N 48°30' W 124°55'1010.0
2015-Feb-12 12:33N 48°30' W 124°40'1110.9
2015-Feb-12 11:33N 48°25' W 124°25'1111.2
2015-Feb-12 10:33N 48°21' W 124°10'1211.7
2015-Feb-12 09:33N 48°17' W 123°53'1111.5
2015-Feb-12 08:33N 48°16' W 123°36'9 9.4
2015-Feb-12 07:33N 48°22' W 123°25'9 9.1
2015-Feb-12 06:33N 48°25' W 123°12'1211.8
2015-Feb-12 05:33N 48°37' W 123°14'9 9.2
2015-Feb-12 04:33N 48°45' W 123°07'9 8.9
2015-Feb-12 03:33N 48°53' W 123°04'8 8.2
2015-Feb-12 02:33N 49°01' W 123°09'0 0.0
2015-Feb-12 01:31N 49°01' W 123°09'0 0.0
2015-Feb-12 00:31N 49°01' W 123°09'0 0.0
2015-Feb-11 23:31N 49°01' W 123°09'0 0.0
2015-Feb-11 22:31N 49°01' W 123°09'0 0.0
2015-Feb-11 21:31N 49°01' W 123°09'0 0.0
2015-Feb-11 20:31N 49°01' W 123°09'0 0.0
2015-Feb-11 19:31N 49°01' W 123°09'0 0.0
2015-Feb-11 18:31N 49°01' W 123°09'0 0.0
2015-Feb-11 17:31N 49°01' W 123°09'0 0.0
2015-Feb-11 16:31N 49°01' W 123°09'0 0.0
2015-Feb-11 15:31N 49°01' W 123°09'0 0.0
2015-Feb-11 14:31N 49°01' W 123°09'0 0.0
2015-Feb-11 13:31N 49°01' W 123°09'0 0.0
2015-Feb-11 12:31N 49°01' W 123°09'0 0.0
2015-Feb-11 11:31N 49°01' W 123°09'0 0.0
2015-Feb-11 10:31N 49°01' W 123°09'0 0.0
2015-Feb-11 09:31N 49°01' W 123°09'0 0.0
2015-Feb-11 08:31N 49°01' W 123°09'0 0.0
2015-Feb-11 07:31N 49°01' W 123°09'0 0.0
2015-Feb-11 06:31N 49°01' W 123°09'0 0.0
2015-Feb-11 05:31N 49°01' W 123°09'0 0.0
2015-Feb-11 04:26N 49°01' W 123°09'0 0.0
2015-Feb-11 03:28N 49°01' W 123°09'0 0.0
2015-Feb-11 02:32N 49°01' W 123°09'0 0.0
2015-Feb-11 01:31N 49°01' W 123°09'0 0.0
2015-Feb-11 00:31N 49°01' W 123°09'0 0.0
2015-Feb-10 23:31N 49°01' W 123°09'0 0.0
2015-Feb-10 22:28N 49°01' W 123°09'0 0.0
2015-Feb-10 21:31N 49°01' W 123°09'0 0.0
2015-Feb-10 20:31N 49°01' W 123°09'0 0.0
2015-Feb-10 19:31N 49°01' W 123°09'0 0.0
2015-Feb-10 18:31N 49°01' W 123°09'0 0.0
2015-Feb-10 17:31N 49°01' W 123°09'0 0.0
2015-Feb-10 16:31N 49°01' W 123°09'0 0.0
2015-Feb-10 15:31N 49°01' W 123°09'0 0.0
2015-Feb-10 14:33N 49°01' W 123°09'2 1.8
2015-Feb-10 13:33N 49°00' W 123°12'0 0.3
2015-Feb-10 12:33N 49°00' W 123°12'6 5.5
2015-Feb-10 11:33N 49°01' W 123°20'8 8.0
2015-Feb-10 10:33N 49°08' W 123°23'1110.5
2015-Feb-10 09:33N 49°18' W 123°17'2 2.1
2015-Feb-10 08:32N 49°18' W 123°13'0 0.0
2015-Feb-10 07:32N 49°18' W 123°13'0 0.1
2015-Feb-10 06:32N 49°18' W 123°13'0 0.1
2015-Feb-10 05:32N 49°18' W 123°13'0 0.0
2015-Feb-10 04:32N 49°18' W 123°13'0 0.1
2015-Feb-10 03:32N 49°18' W 123°13'0 0.0
2015-Feb-10 02:32N 49°18' W 123°13'0 0.0
2015-Feb-10 01:32N 49°18' W 123°13'0 0.1
2015-Feb-10 00:32N 49°18' W 123°13'0 0.0
2015-Feb-09 23:32N 49°18' W 123°13'0 0.0
2015-Feb-09 22:32N 49°18' W 123°13'0 0.0
2015-Feb-09 21:32N 49°18' W 123°13'0 0.0
2015-Feb-09 20:32N 49°18' W 123°13'0 0.0
2015-Feb-09 19:32N 49°18' W 123°13'0 0.0
2015-Feb-09 18:32N 49°18' W 123°13'0 0.0
2015-Feb-09 17:32N 49°18' W 123°13'0 0.1
2015-Feb-09 16:32N 49°18' W 123°13'0 0.1
2015-Feb-09 15:32N 49°18' W 123°13'0 0.1
2015-Feb-09 14:32N 49°18' W 123°13'0 0.0
2015-Feb-09 13:32N 49°18' W 123°13'0 0.0
2015-Feb-09 12:32N 49°18' W 123°13'0 0.1
2015-Feb-09 11:32N 49°18' W 123°13'0 0.1
2015-Feb-09 10:32N 49°18' W 123°13'0 0.0
2015-Feb-09 09:32N 49°18' W 123°13'  

Dump ship's entire track history